Terminal Aerodrome Forecast
Issued by NWS Hastings, NE

Home | Current Version | Previous Version | Text Only | Print | Product List | Glossary On
Versions: 1 2 3 4 5 6 7 8 9 10 11 12 13 14 15 16 17 18
000
FTUS43 KGID 270552
TAFGRI
TAF
KGRI 270552Z 2706/2806 18005KT P6SM SKC
     FM271500 18011KT P6SM SCT200
     FM271800 17015G22KT P6SM SCT030 BKN200
     FM272300 15010KT P6SM SCT030 BKN200
     FM280400 16009KT 6SM BR SCT007 BKN015=

USA.gov is the U.S. government's official web portal to all federal, state and local government web resources and services.